Western Head, Canada
Current Conditions -  °F | °C
As of 3:00 AM on Wednesday 22 Oct 2014 (Local Time) from CYZX Reporting Station
Overcast Overcast  
Wind Chill:   Ceiling: 9000
Heat Index:   Visibility: 15mi
Dew Point:   Wind: 6mph
Humidity: 87%   Direction: 70°ENE
Pressure: 30.25"   Gusts: NA
Location:  43.99°N, 64.68°W
Report Text: CYZX 220600Z 07005KT 15SM OVC090 08/06 A3025 RMK AC8 WNDY HILL 10012G17KT SLP245
Loading
Personal Weather Stations






























Interactive Weather Map
Tropical Storm Tracking
New forecast layout! Learn more

10-Day Weather Forecast

Advertisements
Track Severe Weather on mobile